Time;durP1;ratioP1;P1;durP2;ratioP2;P2;SDS_P1;SDS_P2;PMS_P1;PMS_P2;Temp;Humidity;BMP_temperature;BMP_pressure;BME280_temperature;BME280_humidity;BME280_pressure;Samples;Min_cycle;Max_cycle;Signal;HPM_P1;HPM_P2
2022/08/26 00:01:46;;;;;;;15.68;8.38;;;;;;;18.62;70.41;99367.70;1675075;83;20988;-67
2022/08/26 00:04:15;;;;;;;14.60;8.45;;;;;;;18.59;71.02;99364.25;1659167;84;20983;-69
2022/08/26 00:06:44;;;;;;;16.70;9.10;;;;;;;18.53;71.04;99362.97;1693834;82;21636;-69
2022/08/26 00:09:16;;;;;;;19.05;8.08;;;;;;;18.46;71.49;99365.88;1715727;82;20914;-69
2022/08/26 00:11:50;;;;;;;15.43;8.33;;;;;;;18.43;71.57;99362.45;1671896;82;21049;-69
2022/08/26 00:14:26;;;;;;;17.32;8.85;;;;;;;18.43;71.41;99356.89;1701090;83;20977;-69
2022/08/26 00:16:55;;;;;;;12.10;7.97;;;;;;;18.43;71.33;99361.06;1701363;83;21882;-69
2022/08/26 00:19:27;;;;;;;12.53;7.70;;;;;;;18.44;71.48;99349.36;1698635;81;21058;-69
2022/08/26 00:22:01;;;;;;;20.12;8.00;;;;;;;18.39;71.42;99354.64;1707102;83;21391;-69
2022/08/26 00:24:28;;;;;;;19.23;8.35;;;;;;;18.36;71.64;99356.77;1685073;83;21071;-70
2022/08/26 00:27:02;;;;;;;16.50;7.42;;;;;;;18.34;71.80;99353.56;1666708;83;20979;-70
2022/08/26 00:29:34;;;;;;;15.25;8.53;;;;;;;18.31;72.11;99349.34;1686124;83;21228;-69
2022/08/26 00:32:11;;;;;;;12.23;8.63;;;;;;;18.30;72.24;99354.09;1689086;83;22458;-69
2022/08/26 00:34:43;;;;;;;15.55;8.53;;;;;;;18.27;72.73;99355.42;1664716;84;20960;-69
2022/08/26 00:37:12;;;;;;;19.52;8.60;;;;;;;;;;1666529;83;20912;-67
2022/08/26 00:39:42;;;;;;;12.10;7.65;;;;;;;18.21;72.91;99348.58;1691143;83;20962;-67
2022/08/26 00:42:12;;;;;;;18.95;8.80;;;;;;;18.17;72.67;99351.30;1682308;83;21193;-68
2022/08/26 00:44:43;;;;;;;16.00;8.85;;;;;;;18.13;72.66;99340.70;1667780;85;20952;-68
2022/08/26 00:47:37;;;;;;;22.95;9.30;;;;;;;18.11;72.69;99344.44;1691437;83;20990;-68
2022/08/26 00:50:12;;;;;;;14.45;8.75;;;;;;;18.08;72.73;99343.79;1621719;86;21068;-67
2022/08/26 00:52:44;;;;;;;13.98;9.05;;;;;;;18.03;72.89;99336.57;1619854;86;20904;-69
2022/08/26 00:55:22;;;;;;;19.15;8.68;;;;;;;18.02;73.31;99335.55;1685435;83;21192;-69
2022/08/26 00:57:57;;;;;;;15.53;8.80;;;;;;;18.00;73.25;99334.53;1711038;82;20862;-70
2022/08/26 01:00:29;;;;;;;16.77;9.10;;;;;;;17.96;73.52;99335.64;1691696;82;21006;-70
2022/08/26 01:02:59;;;;;;;17.77;9.08;;;;;;;17.93;73.84;99334.41;1689343;82;20979;-68
2022/08/26 01:05:33;;;;;;;16.52;8.58;;;;;;;17.92;73.93;99334.77;1703265;82;20985;-68
2022/08/26 01:08:02;;;;;;;15.35;9.25;;;;;;;17.89;74.09;99333.57;1684596;83;21868;-68
2022/08/26 01:10:36;;;;;;;20.55;9.38;;;;;;;17.87;74.06;99333.14;1682486;84;20975;-68
2022/08/26 01:13:09;;;;;;;14.85;8.90;;;;;;;17.85;74.39;99341.62;1694031;82;21027;-68
2022/08/26 01:15:54;;;;;;;20.30;9.98;;;;;;;17.84;74.52;99330.30;1658733;83;21531;-69
2022/08/26 01:18:20;;;;;;;18.07;9.05;;;;;;;17.85;74.37;99329.13;1695263;83;21008;-70
2022/08/26 01:21:08;;;;;;;12.68;8.43;;;;;;;17.84;74.56;99335.84;1696090;83;21277;-68
2022/08/26 01:23:47;;;;;;;20.60;9.68;;;;;;;17.82;74.63;99332.05;1704180;82;21014;-67
2022/08/26 01:26:30;;;;;;;13.40;8.53;;;;;;;17.78;74.67;99327.02;1691967;83;21591;-68
2022/08/26 01:28:59;;;;;;;18.80;8.25;;;;;;;17.77;74.84;99334.55;1675220;83;20900;-70
2022/08/26 01:31:37;;;;;;;17.67;9.15;;;;;;;17.74;74.93;99329.73;1703213;82;21558;-67
2022/08/26 01:34:17;;;;;;;14.05;8.73;;;;;;;17.73;74.88;99326.73;1670503;83;21446;-68
2022/08/26 01:36:48;;;;;;;13.53;8.10;;;;;;;17.70;75.02;99319.73;1697902;83;21035;-68
2022/08/26 01:39:21;;;;;;;21.55;8.40;;;;;;;17.69;75.13;99318.92;1664841;83;20947;-69
2022/08/26 01:41:56;;;;;;;17.00;9.73;;;;;;;17.68;75.27;99327.04;1694326;83;21537;-67
2022/08/26 01:44:30;;;;;;;21.27;9.60;;;;;;;17.65;75.44;99329.16;1712385;82;21002;-69
2022/08/26 01:46:58;;;;;;;14.20;8.30;;;;;;;17.60;75.61;99318.33;1699806;83;21151;-68
2022/08/26 01:49:31;;;;;;;19.55;9.48;;;;;;;17.58;75.83;99327.61;1694833;83;20999;-69
2022/08/26 01:52:06;;;;;;;20.97;9.25;;;;;;;17.56;75.89;99317.46;1659489;85;21455;-69
2022/08/26 01:54:37;;;;;;;16.25;9.60;;;;;;;17.52;76.09;99312.42;1686937;83;21008;-69
2022/08/26 01:57:04;;;;;;;20.35;9.60;;;;;;;17.48;76.31;99316.52;1695326;82;21491;-69
2022/08/26 01:59:36;;;;;;;16.50;8.60;;;;;;;17.44;76.54;99312.07;1712501;82;21207;-69
2022/08/26 02:02:03;;;;;;;17.70;9.40;;;;;;;17.38;76.76;99318.50;1703240;83;21567;-69
2022/08/26 02:04:34;;;;;;;21.80;9.18;;;;;;;17.34;76.94;99310.69;1704578;83;20902;-69
2022/08/26 02:07:05;;;;;;;18.87;8.50;;;;;;;17.32;77.21;99308.89;1705621;81;20886;-69
2022/08/26 02:09:35;;;;;;;17.00;9.08;;;;;;;17.30;77.42;99307.66;1704729;83;20874;-69
2022/08/26 02:12:04;;;;;;;16.10;9.10;;;;;;;17.30;77.56;99314.59;1694733;83;21247;-68
2022/08/26 02:14:40;;;;;;;17.87;9.33;;;;;;;17.26;77.71;99310.95;1687390;83;21003;-70
2022/08/26 02:17:17;;;;;;;18.23;9.73;;;;;;;17.20;78.03;99304.89;1704822;82;20915;-70
2022/08/26 02:19:48;;;;;;;17.30;8.48;;;;;;;17.16;78.34;99303.42;1690434;83;21574;-71
2022/08/26 02:22:25;;;;;;;20.15;10.72;;;;;;;17.12;78.85;99301.16;1691232;83;21482;-71
2022/08/26 02:25:02;;;;;;;20.68;9.18;;;;;;;17.12;79.02;99303.94;1715409;83;21875;-69
2022/08/26 02:27:33;;;;;;;17.48;9.65;;;;;;;17.09;79.08;99299.13;1690156;82;21506;-70
2022/08/26 02:30:10;;;;;;;22.52;9.45;;;;;;;17.08;79.35;99308.61;1700287;82;21528;-70
2022/08/26 02:32:48;;;;;;;15.75;9.40;;;;;;;17.05;79.41;99305.17;1719227;81;20975;-68
2022/08/26 02:35:17;;;;;;;15.38;9.60;;;;;;;17.00;79.77;99306.05;1691926;82;20931;-67
2022/08/26 02:37:43;;;;;;;18.85;9.38;;;;;;;16.97;80.07;99306.78;1713776;81;21104;-69
2022/08/26 02:40:12;;;;;;;19.20;9.73;;;;;;;16.94;80.26;99302.77;1708558;83;20862;-68
2022/08/26 02:42:43;;;;;;;16.20;9.75;;;;;;;16.89;80.49;99303.05;1698193;82;20900;-68
2022/08/26 02:45:10;;;;;;;16.67;9.25;;;;;;;16.86;80.73;99307.13;1697530;82;21413;-68
2022/08/26 02:47:39;;;;;;;14.80;9.30;;;;;;;16.83;80.98;99304.50;1703891;82;21106;-69
2022/08/26 02:50:12;;;;;;;20.37;9.63;;;;;;;16.82;81.15;99309.83;1690729;83;21502;-69
2022/08/26 02:52:42;;;;;;;17.27;9.70;;;;;;;16.79;81.23;99311.35;1710154;83;20969;-67
2022/08/26 02:55:10;;;;;;;15.40;9.08;;;;;;;16.78;81.30;99310.33;1695157;82;21723;-67
2022/08/26 02:57:43;;;;;;;16.90;9.98;;;;;;;16.76;81.37;99315.43;1701255;83;20929;-67
2022/08/26 03:00:16;;;;;;;12.60;9.08;;;;;;;16.75;81.62;99315.24;1666253;83;20969;-68
2022/08/26 03:02:45;;;;;;;21.15;10.18;;;;;;;16.74;81.90;99316.41;1710261;83;21164;-69
2022/08/26 03:05:22;;;;;;;14.58;8.95;;;;;;;16.74;82.14;99318.59;1684184;83;21052;-69
2022/08/26 03:07:59;;;;;;;16.40;9.60;;;;;;;16.73;82.22;99318.95;1689394;83;20831;-69
2022/08/26 03:10:31;;;;;;;17.67;9.70;;;;;;;16.73;82.30;99318.95;1709540;82;20986;-69
2022/08/26 03:13:06;;;;;;;18.50;9.55;;;;;;;16.73;82.35;99322.53;1695061;82;21465;-69
2022/08/26 03:15:32;;;;;;;16.73;9.83;;;;;;;16.72;82.35;99321.51;1706206;83;21071;-69
2022/08/26 03:18:08;;;;;;;22.55;10.20;;;;;;;16.69;82.34;99314.72;1700151;82;20951;-69
2022/08/26 03:20:41;;;;;;;19.12;10.03;;;;;;;16.69;82.65;99316.69;1690355;82;21006;-69
2022/08/26 03:23:12;;;;;;;15.98;9.38;;;;;;;16.66;82.63;99322.37;1712343;83;20895;-69
2022/08/26 03:25:43;;;;;;;16.67;9.80;;;;;;;16.64;82.81;99316.94;1708201;82;21413;-69
2022/08/26 03:28:10;;;;;;;17.00;9.95;;;;;;;16.63;82.99;99323.64;1662851;83;21007;-68
2022/08/26 03:30:41;;;;;;;15.93;9.60;;;;;;;16.62;83.17;99320.66;1662114;84;20929;-69
2022/08/26 03:33:10;;;;;;;16.35;9.35;;;;;;;16.63;83.27;99318.10;1688405;82;20999;-69
2022/08/26 03:35:39;;;;;;;15.13;9.90;;;;;;;16.61;83.40;99326.78;1696165;82;21038;-69
2022/08/26 03:38:08;;;;;;;14.83;9.43;;;;;;;16.62;83.52;99324.81;1703304;82;21072;-69
2022/08/26 03:40:39;;;;;;;14.78;9.55;;;;;;;16.62;83.59;99322.84;1691803;83;21820;-69
2022/08/26 03:43:08;;;;;;;13.25;9.18;;;;;;;16.65;83.57;99322.73;1694485;83;21516;-69
2022/08/26 03:45:40;;;;;;;15.25;9.63;;;;;;;16.68;83.53;99320.05;1693757;82;21070;-68
2022/08/26 03:48:11;;;;;;;17.12;9.55;;;;;;;16.71;83.52;99312.97;1671491;84;20928;-69
2022/08/26 03:50:38;;;;;;;18.37;10.43;;;;;;;16.74;83.47;99318.59;1710851;83;20921;-69
2022/08/26 03:53:08;;;;;;;21.00;9.73;;;;;;;16.77;83.50;99318.42;1713545;83;21220;-69
2022/08/26 03:55:39;;;;;;;22.13;10.08;;;;;;;16.78;83.72;99323.61;1678312;83;21574;-71
2022/08/26 03:58:10;;;;;;;18.10;9.65;;;;;;;16.84;83.57;99330.47;1695524;83;21189;-68
2022/08/26 04:00:42;;;;;;;18.65;9.58;;;;;;;16.91;83.40;99320.13;1688799;81;21158;-68
2022/08/26 04:03:56;;;;;;;14.60;8.98;;;;;;;17.01;83.47;99320.94;1694949;82;21546;-68
2022/08/26 04:05:43;;;;;;;32.48;9.40;;;;;;;17.10;83.00;99318.75;1684853;82;21164;-69
2022/08/26 04:08:16;;;;;;;20.15;8.73;;;;;;;17.23;82.45;99314.45;1693846;81;21487;-68
2022/08/26 04:10:48;;;;;;;16.67;8.80;;;;;;;17.34;81.31;99306.53;1692758;83;21126;-68
2022/08/26 04:13:17;;;;;;;18.20;8.93;;;;;;;17.44;80.72;99305.13;1695681;83;20862;-68
2022/08/26 04:15:47;;;;;;;12.35;7.85;;;;;;;17.54;80.24;99305.92;1689256;83;21088;-69
2022/08/26 04:18:16;;;;;;;19.48;9.65;;;;;;;17.63;79.87;99305.10;1695611;83;21499;-67
2022/08/26 04:20:46;;;;;;;21.05;9.00;;;;;;;17.69;79.79;99301.47;1711911;83;20931;-69
2022/08/26 04:23:13;;;;;;;20.40;9.20;;;;;;;17.80;79.19;99309.41;1709558;83;21461;-69
2022/08/26 04:25:46;;;;;;;26.82;10.48;;;;;;;17.88;78.74;99310.34;1696816;83;21492;-69
2022/08/26 04:28:22;;;;;;;20.52;10.53;;;;;;;17.94;78.78;99308.83;1695802;82;20927;-68
2022/08/26 04:30:44;;;;;;;22.37;10.88;;;;;;;18.00;78.36;99305.37;1691125;83;21390;-68
2022/08/26 04:33:12;;;;;;;25.65;10.50;;;;;;;18.08;78.06;99304.91;1699582;82;20967;-68
2022/08/26 04:35:57;;;;;;;20.97;9.90;;;;;;;18.15;77.98;99298.08;1691972;82;21605;-68
2022/08/26 04:38:21;;;;;;;17.62;9.23;;;;;;;18.22;77.80;99293.23;1704501;83;20926;-68
2022/08/26 04:40:52;;;;;;;17.57;8.80;;;;;;;18.28;77.62;99296.70;1701824;82;21005;-67
2022/08/26 04:43:21;;;;;;;22.07;8.63;;;;;;;18.36;77.57;99294.25;1697161;82;21177;-67
2022/08/26 04:45:49;;;;;;;17.48;9.33;;;;;;;18.47;76.46;99295.22;1691452;83;22524;-67
2022/08/26 04:48:18;;;;;;;21.20;9.00;;;;;;;18.57;75.59;99295.13;1699942;82;20957;-67
2022/08/26 04:50:45;;;;;;;18.45;9.03;;;;;;;18.67;75.48;99291.73;1682802;83;21035;-69
2022/08/26 04:53:17;;;;;;;19.65;8.78;;;;;;;18.79;74.92;99289.31;1697365;82;20919;-67
2022/08/26 04:55:51;;;;;;;19.80;9.35;;;;;;;18.87;74.38;99287.44;1702813;83;21982;-68
2022/08/26 04:58:27;;;;;;;19.30;8.83;;;;;;;18.96;74.13;99286.56;1678290;83;21023;-67
2022/08/26 05:00:55;;;;;;;16.73;8.45;;;;;;;19.05;72.87;99291.25;1688720;82;21094;-67
2022/08/26 05:03:26;;;;;;;16.35;8.18;;;;;;;19.14;72.11;99292.53;1697005;82;20960;-67
2022/08/26 05:05:54;;;;;;;19.62;8.28;;;;;;;19.27;72.28;99295.06;1708840;82;20967;-67
2022/08/26 05:08:24;;;;;;;21.87;8.38;;;;;;;19.37;71.41;99295.78;1693826;82;21163;-67
2022/08/26 05:10:54;;;;;;;14.23;7.80;;;;;;;19.44;70.55;99297.25;1682895;84;21135;-68
2022/08/26 05:13:28;;;;;;;22.37;7.62;;;;;;;19.51;70.55;99297.36;1681746;83;21571;-67
2022/08/26 05:15:56;;;;;;;17.70;7.60;;;;;;;19.58;69.91;99297.44;1628848;86;20999;-71
2022/08/26 05:18:26;;;;;;;18.55;7.83;;;;;;;19.66;70.24;99292.71;1693600;82;20983;-67
2022/08/26 05:20:56;;;;;;;16.32;7.30;;;;;;;19.75;69.90;99299.57;1686049;82;21170;-67
2022/08/26 05:23:32;;;;;;;17.35;7.08;;;;;;;19.84;70.01;99299.85;1687037;83;20904;-68
2022/08/26 05:25:59;;;;;;;22.15;7.72;;;;;;;19.94;69.94;99300.55;1700186;82;21544;-69
2022/08/26 05:28:30;;;;;;;15.28;7.08;;;;;;;20.04;68.47;99305.41;1700407;82;21027;-67
2022/08/26 05:30:59;;;;;;;18.77;7.60;;;;;;;20.13;68.24;99296.73;1688464;83;20938;-69
2022/08/26 05:33:33;;;;;;;14.98;7.08;;;;;;;20.23;67.87;99295.39;1691775;83;21983;-69
2022/08/26 05:36:09;;;;;;;17.73;7.25;;;;;;;20.35;67.37;99295.69;1695102;83;20902;-69
2022/08/26 05:38:38;;;;;;;16.75;6.45;;;;;;;20.46;66.74;99299.97;1679950;85;20908;-67
2022/08/26 05:41:22;;;;;;;18.52;8.35;;;;;;;20.55;66.92;99299.84;1682523;83;20960;-68
2022/08/26 05:43:54;;;;;;;13.25;6.92;;;;;;;20.68;66.30;99300.33;1695371;82;22126;-69
2022/08/26 05:46:28;;;;;;;24.87;7.50;;;;;;;20.79;65.48;99290.03;1679231;83;21285;-69
2022/08/26 05:48:57;;;;;;;17.80;6.60;;;;;;;20.92;64.89;99294.05;1677449;83;21062;-66
2022/08/26 05:51:33;;;;;;;18.48;6.92;;;;;;;21.07;64.83;99292.13;1728826;81;21557;-70
2022/08/26 05:54:04;;;;;;;11.48;6.62;;;;;;;21.18;63.28;99290.19;1748050;81;21426;-65
2022/08/26 05:56:34;;;;;;;22.50;7.57;;;;;;;21.28;62.74;99290.86;1711074;82;21030;-66
2022/08/26 05:59:08;;;;;;;20.77;6.90;;;;;;;21.39;62.48;99290.27;1713734;82;20981;-68
2022/08/26 06:01:38;;;;;;;;;;;;;;;21.50;62.20;99298.67;1714442;82;20892;-68
2022/08/26 06:04:07;;;;;;;21.00;7.10;;;;;;;21.66;62.19;99296.32;1705850;82;20130;-70
2022/08/26 06:06:40;;;;;;;16.30;6.87;;;;;;;21.79;61.65;99294.55;1705932;82;20969;-67
2022/08/26 06:09:12;;;;;;;14.58;6.25;;;;;;;21.92;60.24;99290.98;1704391;83;20940;-66
2022/08/26 06:11:43;;;;;;;18.73;7.53;;;;;;;22.05;59.25;99292.19;1708825;81;21174;-66
2022/08/26 06:14:09;;;;;;;14.63;6.08;;;;;;;22.19;58.83;99293.39;1707744;83;21495;-68
2022/08/26 06:16:38;;;;;;;21.68;6.97;;;;;;;;;;1714848;82;20975;-65
2022/08/26 06:19:13;;;;;;;15.43;6.20;;;;;;;22.39;56.62;99285.59;1701866;82;37701;-66
2022/08/26 06:21:44;;;;;;;21.10;6.92;;;;;;;22.53;57.60;99284.73;1710749;82;21028;-66
2022/08/26 06:27:08;;;;;;;15.75;6.83;;;;;;;22.86;56.89;99294.69;1692771;82;20845;-65
2022/08/26 06:29:39;;;;;;;19.55;7.25;;;;;;;23.05;55.75;99286.44;1709046;83;21043;-66
2022/08/26 06:32:07;;;;;;;;;;;;;;;23.20;54.87;99286.55;1690037;83;20959;-66
2022/08/26 06:34:37;;;;;;;50.70;8.33;;;;;;;23.36;53.99;99281.27;1708112;83;20176;-68
2022/08/26 06:37:09;;;;;;;20.20;9.08;;;;;;;23.47;53.90;99281.22;1729297;81;21892;-69
2022/08/26 06:39:35;;;;;;;22.17;8.00;;;;;;;23.58;53.09;99283.98;1734315;82;20991;-69
2022/08/26 06:42:04;;;;;;;21.20;5.97;;;;;;;23.69;52.21;99289.69;1730108;81;20920;-69
2022/08/26 06:44:34;;;;;;;16.35;5.87;;;;;;;23.79;51.20;99294.23;1705373;81;21034;-71
2022/08/26 06:47:07;;;;;;;16.70;6.37;;;;;;;23.88;50.81;99297.38;1743933;81;20924;-71
2022/08/26 06:49:35;;;;;;;15.13;5.63;;;;;;;23.97;51.01;99287.91;1731655;82;21914;-71
2022/08/26 06:52:02;;;;;;;15.23;8.25;;;;;;;24.07;49.89;99287.63;1690835;82;20892;-70
2022/08/26 06:54:31;;;;;;;44.83;20.32;;;;;;;24.11;49.17;99287.80;1691747;81;20977;-67
2022/08/26 06:57:03;;;;;;;33.50;14.68;;;;;;;24.18;49.66;99282.13;1718698;81;21040;-68
2022/08/26 06:59:34;;;;;;;30.88;12.10;;;;;;;24.26;49.56;99283.66;1711967;80;21059;-68
2022/08/26 07:02:04;;;;;;;25.05;7.47;;;;;;;24.39;50.36;99286.75;1725665;81;20956;-68
2022/08/26 07:04:34;;;;;;;14.70;6.95;;;;;;;24.55;49.51;99277.18;1724488;80;20857;-68
2022/08/26 07:07:04;;;;;;;29.27;6.78;;;;;;;24.69;48.85;99284.66;1669090;82;21502;-69
2022/08/26 07:09:40;;;;;;;16.62;6.22;;;;;;;24.81;49.20;99286.94;1735164;81;20963;-68
2022/08/26 07:12:09;;;;;;;15.75;5.33;;;;;;;24.98;48.95;99282.34;1735948;81;20943;-68
2022/08/26 07:14:39;;;;;;;25.77;8.83;;;;;;;25.15;48.24;99286.14;1704412;81;21082;-67
2022/08/26 07:17:06;;;;;;;17.73;6.55;;;;;;;25.30;47.69;99281.94;1720633;81;21539;-66
2022/08/26 07:19:36;;;;;;;18.20;5.53;;;;;;;25.41;47.82;99279.79;1722600;80;20999;-66
2022/08/26 07:22:12;;;;;;;26.02;8.23;;;;;;;25.55;47.01;99278.16;1715481;82;21328;-67
2022/08/26 07:24:41;;;;;;;16.93;5.65;;;;;;;25.70;46.36;99273.16;1727560;81;20998;-67
2022/08/26 07:27:17;;;;;;;20.27;6.20;;;;;;;25.83;45.14;99284.00;1711520;82;21166;-68
2022/08/26 07:29:44;;;;;;;28.73;5.70;;;;;;;25.96;45.76;99285.01;1674570;85;20926;-68
2022/08/26 07:32:15;;;;;;;14.93;5.40;;;;;;;26.13;44.81;99284.51;1670369;84;20936;-68
2022/08/26 07:34:47;;;;;;;35.88;14.95;;;;;;;26.27;44.48;99282.07;1718867;81;21486;-69
2022/08/26 07:37:24;;;;;;;41.35;17.67;;;;;;;26.33;44.24;99286.02;1720497;82;21521;-68
2022/08/26 07:39:48;;;;;;;46.15;21.90;;;;;;;26.39;43.72;99278.67;1716226;80;21096;-69
2022/08/26 07:42:18;;;;;;;24.95;10.63;;;;;;;26.48;43.96;99278.13;1717639;81;29043;-70
2022/08/26 07:44:52;;;;;;;23.90;7.37;;;;;;;26.59;42.03;99266.82;1714025;81;21050;-69
2022/08/26 07:47:28;;;;;;;14.78;5.67;;;;;;;26.64;39.23;99271.16;1716811;82;20936;-70
2022/08/26 07:50:12;;;;;;;15.68;5.47;;;;;;;26.65;39.80;99267.12;1715707;82;21491;-68
2022/08/26 07:52:31;;;;;;;25.50;5.92;;;;;;;26.71;41.41;99263.98;1715984;82;21155;-68
2022/08/26 07:55:01;;;;;;;20.68;5.50;;;;;;;26.96;41.68;99268.55;1717898;81;20923;-69
2022/08/26 07:57:33;;;;;;;36.13;6.00;;;;;;;27.18;39.67;99260.42;1711380;81;20992;-69
2022/08/26 08:00:14;;;;;;;19.17;5.15;;;;;;;27.38;39.11;99266.04;1713516;82;20957;-68
2022/08/26 08:02:41;;;;;;;15.00;5.45;;;;;;;27.52;37.80;99260.70;1733560;81;20896;-67
2022/08/26 08:05:11;;;;;;;22.50;5.75;;;;;;;27.68;39.08;99264.20;1695806;83;21284;-70
2022/08/26 08:07:38;;;;;;;23.52;5.58;;;;;;;27.93;38.85;99263.77;1720343;82;21022;-71
2022/08/26 08:10:06;;;;;;;29.18;6.12;;;;;;;28.20;38.35;99259.89;1721825;81;20880;-69
2022/08/26 08:12:37;;;;;;;15.93;5.15;;;;;;;28.52;37.83;99261.87;1710293;83;20982;-70
2022/08/26 08:15:12;;;;;;;19.10;5.03;;;;;;;28.77;36.61;99254.15;1730951;81;21426;-68
2022/08/26 08:17:46;;;;;;;29.32;5.05;;;;;;;28.97;37.25;99253.99;1709827;82;20960;-70
2022/08/26 08:20:18;;;;;;;27.37;5.45;;;;;;;29.19;35.88;99249.30;1728588;81;21048;-71
2022/08/26 08:22:56;;;;;;;20.65;5.78;;;;;;;29.36;35.12;99247.98;1697370;81;21570;-70
2022/08/26 08:25:25;;;;;;;12.47;4.85;;;;;;;29.50;34.63;99243.92;1686877;83;21029;-68
2022/08/26 08:27:52;;;;;;;22.93;4.85;;;;;;;29.61;34.36;99242.19;1698140;80;20988;-70
2022/08/26 08:30:21;;;;;;;40.25;6.03;;;;;;;29.69;33.91;99238.67;1700351;82;21109;-69
2022/08/26 08:32:51;;;;;;;27.50;6.70;;;;;;;29.73;32.67;99239.36;1713980;81;21004;-70
2022/08/26 08:35:25;;;;;;;30.90;5.83;;;;;;;29.83;34.01;99239.63;1755215;80;20939;-71
2022/08/26 08:37:56;;;;;;;24.63;5.80;;;;;;;30.04;34.11;99235.31;1716457;82;21688;-69
2022/08/26 08:40:27;;;;;;;31.80;5.58;;;;;;;30.31;34.63;99231.18;1695810;82;20936;-73
2022/08/26 08:43:05;;;;;;;36.75;5.17;;;;;;;30.64;33.11;99228.18;1722688;79;21261;-70
2022/08/26 08:45:50;;;;;;;30.60;6.37;;;;;;;30.87;32.91;99234.81;1719350;81;21085;-71
2022/08/26 08:48:28;;;;;;;29.55;5.58;;;;;;;31.03;30.74;99230.20;1711329;81;21046;-72
2022/08/26 08:51:09;;;;;;;29.87;5.12;;;;;;;30.99;31.10;99228.92;1731495;80;22175;-71
2022/08/26 08:53:40;;;;;;;32.78;5.97;;;;;;;31.05;32.34;99230.53;1745355;81;21059;-70
2022/08/26 08:56:48;;;;;;;23.12;5.17;;;;;;;31.31;31.30;99224.87;1745998;80;21124;-70
2022/08/26 08:59:24;;;;;;;23.35;5.10;;;;;;;31.41;30.91;99222.87;1729694;82;20932;-69
2022/08/26 09:02:12;;;;;;;27.85;5.22;;;;;;;31.60;31.07;99220.28;1741790;81;21510;-70
2022/08/26 09:05:27;;;;;;;28.50;5.05;;;;;;;31.62;29.70;99219.81;1717631;81;21556;-69
2022/08/26 09:08:02;;;;;;;26.48;5.35;;;;;;;31.39;29.48;99216.87;1715123;82;21655;-70
2022/08/26 09:10:38;;;;;;;24.63;4.67;;;;;;;31.31;31.93;99226.28;1720377;80;21269;-68
2022/08/26 09:13:09;;;;;;;26.23;4.80;;;;;;;31.50;28.77;99214.41;1727358;81;21498;-69
2022/08/26 09:15:47;;;;;;;43.08;4.90;;;;;;;31.59;29.89;99217.91;1713126;81;20971;-68
2022/08/26 09:18:47;;;;;;;39.53;4.95;;;;;;;31.63;29.64;99213.67;1720397;81;21542;-69
2022/08/26 09:21:15;;;;;;;27.02;4.83;;;;;;;31.67;28.30;99201.55;1669660;84;21066;-71
2022/08/26 09:23:43;;;;;;;18.25;3.65;;;;;;;31.77;28.72;99213.75;1687536;82;21203;-68
2022/08/26 09:26:42;;;;;;;32.25;4.60;;;;;;;31.95;28.65;99208.10;1704983;80;21138;-70
2022/08/26 09:29:22;;;;;;;16.82;4.75;;;;;;;32.08;28.29;99210.19;1701442;83;21091;-67
2022/08/26 09:31:49;;;;;;;12.75;3.90;;;;;;;32.30;29.15;99212.14;1709733;83;21095;-64
2022/08/26 09:34:26;;;;;;;9.55;3.42;;;;;;;32.60;28.17;99206.92;1732539;80;21002;-65
2022/08/26 09:36:56;;;;;;;12.93;3.60;;;;;;;32.78;27.62;99213.26;1761727;80;21125;-65
2022/08/26 09:39:32;;;;;;;11.73;3.65;;;;;;;32.79;26.59;99202.84;1765488;80;20972;-66
2022/08/26 09:42:14;;;;;;;18.40;4.15;;;;;;;32.71;26.52;99204.39;1771675;79;20852;-69
2022/08/26 09:45:05;;;;;;;9.85;3.60;;;;;;;32.66;27.15;99209.92;1758869;80;21088;-68
2022/08/26 09:47:40;;;;;;;13.30;3.37;;;;;;;32.68;26.25;99209.60;1755673;80;21420;-68
2022/08/26 09:50:30;;;;;;;17.32;3.90;;;;;;;32.60;26.42;99207.55;1746824;80;22614;-68
2022/08/26 09:53:15;;;;;;;18.45;3.95;;;;;;;32.56;26.81;99210.55;1754145;79;20904;-68
2022/08/26 09:55:53;;;;;;;20.82;4.03;;;;;;;32.67;26.13;99212.29;1765166;80;20856;-69
2022/08/26 09:58:36;;;;;;;14.50;3.85;;;;;;;32.64;26.31;99201.08;1730493;79;21149;-71
2022/08/26 10:01:31;;;;;;;23.67;4.00;;;;;;;32.78;25.32;99209.79;1752507;79;20986;-70
2022/08/26 10:04:15;;;;;;;14.68;3.42;;;;;;;32.88;24.95;99214.83;1731779;79;21061;-69
2022/08/26 10:06:58;;;;;;;21.68;4.08;;;;;;;32.65;25.22;99209.77;1771744;79;20977;-68
2022/08/26 10:09:29;;;;;;;14.18;4.08;;;;;;;32.63;25.66;99213.71;1756255;79;20918;-73
2022/08/26 10:12:12;;;;;;;15.93;3.42;;;;;;;32.80;24.91;99220.05;1773206;79;20911;-73
2022/08/26 10:14:45;;;;;;;12.88;3.42;;;;;;;32.90;24.70;99215.77;1769580;80;20967;-67
2022/08/26 10:17:23;;;;;;;12.55;3.40;;;;;;;32.94;23.87;99207.84;1741277;80;21264;-67
2022/08/26 10:20:12;;;;;;;13.62;3.25;;;;;;;32.95;24.11;99206.58;1714705;82;20880;-67
2022/08/26 10:23:07;;;;;;;10.28;3.12;;;;;;;32.95;24.68;99210.84;1695113;82;20860;-66
2022/08/26 10:25:58;;;;;;;16.52;2.90;;;;;;;32.95;23.81;99215.89;1710066;82;20938;-67
2022/08/26 10:29:02;;;;;;;18.42;3.55;;;;;;;32.99;23.44;99210.05;1650616;84;21087;-68
2022/08/26 10:34:44;;;;;;;14.60;2.95;;;;;;;33.04;23.14;99210.20;1660166;85;21082;-68
2022/08/26 10:37:19;;;;;;;12.75;3.50;;;;;;;33.02;22.60;99204.83;1674262;83;21030;-68
2022/08/26 10:40:01;;;;;;;16.42;3.40;;;;;;;32.97;22.96;99199.78;1713712;81;21065;-68
2022/08/26 10:42:39;;;;;;;7.15;2.62;;;;;;;33.06;23.92;99196.92;1711928;83;20951;-68
2022/08/26 10:45:24;;;;;;;19.90;3.40;;;;;;;33.24;23.95;99189.77;1716988;83;21168;-69
2022/08/26 10:48:04;;;;;;;16.93;4.00;;;;;;;33.28;24.45;99197.53;1717262;83;20986;-68
2022/08/26 10:50:35;;;;;;;18.57;2.98;;;;;;;33.41;23.83;99191.00;1713482;83;21116;-69
2022/08/26 10:53:20;;;;;;;8.05;2.05;;;;;;;33.64;24.83;99198.63;1714692;83;21572;-69
2022/08/26 10:56:08;;;;;;;13.98;2.90;;;;;;;33.67;21.71;99186.28;1716268;83;21114;-69
2022/08/26 10:59:14;;;;;;;14.13;2.47;;;;;;;33.43;21.40;99183.41;1713486;83;21216;-68
2022/08/26 11:01:51;;;;;;;6.50;1.70;;;;;;;33.25;23.78;99191.34;1711760;83;21586;-70
2022/08/26 11:04:54;;;;;;;12.33;1.90;;;;;;;33.43;21.11;99199.06;1715704;83;21045;-68
2022/08/26 11:07:40;;;;;;;10.82;1.70;;;;;;;33.54;20.35;99199.30;1708541;83;21004;-68
2022/08/26 11:10:24;;;;;;;5.75;1.42;;;;;;;33.59;19.92;99202.13;1699882;84;21090;-69
2022/08/26 11:13:04;;;;;;;11.25;2.30;;;;;;;33.63;20.07;99199.27;1706520;82;22167;-70
2022/08/26 11:15:39;;;;;;;9.53;1.87;;;;;;;33.74;19.86;99193.83;1694750;84;20867;-69
2022/08/26 11:18:13;;;;;;;7.00;1.80;;;;;;;33.87;19.61;99182.89;1677279;84;21445;-69
2022/08/26 11:20:44;;;;;;;14.40;3.00;;;;;;;33.94;20.02;99188.22;1666936;84;21528;-69
2022/08/26 11:23:25;;;;;;;7.90;2.10;;;;;;;33.98;20.16;99182.50;1667907;84;21101;-68
2022/08/26 11:26:10;;;;;;;9.53;2.17;;;;;;;33.90;20.35;99187.61;1696462;84;21158;-68
2022/08/26 11:28:48;;;;;;;6.58;2.02;;;;;;;33.91;20.40;99189.98;1693679;83;21167;-73
2022/08/26 11:31:29;;;;;;;4.47;1.82;;;;;;;33.92;18.29;99175.11;1696554;83;20976;-69
2022/08/26 11:34:05;;;;;;;12.68;2.05;;;;;;;33.99;18.87;99182.66;1702534;83;21609;-69
2022/08/26 11:36:48;;;;;;;12.33;2.10;;;;;;;34.11;18.86;99186.50;1683462;82;21011;-73
2022/08/26 11:39:29;;;;;;;7.70;3.15;;;;;;;34.11;19.05;99185.08;1672967;85;21221;-74
2022/08/26 11:42:04;;;;;;;14.43;1.90;;;;;;;34.11;19.54;99181.59;1657717;85;21561;-68
2022/08/26 11:44:39;;;;;;;11.28;2.20;;;;;;;34.16;18.64;99180.77;1647057;84;21586;-69
2022/08/26 11:47:09;;;;;;;4.80;1.90;;;;;;;33.98;18.74;99177.44;1635944;86;21200;-71
2022/08/26 11:49:36;;;;;;;5.42;1.98;;;;;;;33.85;18.82;99181.95;1651358;86;21021;-69
2022/08/26 11:52:20;;;;;;;12.05;1.92;;;;;;;33.77;19.53;99173.58;1655387;85;21171;-71
2022/08/26 11:55:10;;;;;;;12.78;3.15;;;;;;;33.81;19.78;99165.68;1649678;86;21108;-73
2022/08/26 11:57:48;;;;;;;8.85;1.90;;;;;;;33.66;19.91;99178.37;1699475;83;21086;-76
2022/08/26 12:00:27;;;;;;;5.47;1.75;;;;;;;33.70;20.46;99165.39;1696668;83;20946;-74
2022/08/26 12:02:54;;;;;;;11.75;1.98;;;;;;;33.82;20.15;99166.47;1701824;83;21493;-73
2022/08/26 12:05:30;;;;;;;13.72;2.10;;;;;;;33.75;19.35;99165.52;1696775;84;21197;-70